Time;durP1;ratioP1;P1;durP2;ratioP2;P2;SDS_P1;SDS_P2;PMS_P1;PMS_P2;Temp;Humidity;BMP_temperature;BMP_pressure;BME280_temperature;BME280_humidity;BME280_pressure;Samples;Min_cycle;Max_cycle;Signal;HPM_P1;HPM_P2
2022/06/10 00:01:00;;;;;;;;;13.00;8.67;;;;;20.30;50.47;101359.69;5065140;27;45557;-61
2022/06/10 00:03:27;;;;;;;;;8.00;6.00;;;;;20.33;51.07;101363.13;5063354;27;45684;-63
2022/06/10 00:05:56;;;;;;;;;6.67;5.33;;;;;20.28;51.03;101360.72;5061671;27;45787;-60
2022/06/10 00:08:25;;;;;;;;;5.33;5.00;;;;;20.25;51.22;101364.47;5064316;27;46194;-61
2022/06/10 00:10:51;;;;;;;;;20.33;19.67;;;;;20.20;51.47;101361.25;5071863;28;45430;-60
2022/06/10 00:13:19;;;;;;;;;7.67;6.00;;;;;20.21;51.38;101354.09;5072727;27;45659;-61
2022/06/10 00:15:45;;;;;;;;;6.00;6.00;;;;;20.16;50.88;101359.72;5077041;28;45529;-64
2022/06/10 00:18:11;;;;;;;;;4.67;4.67;;;;;20.15;51.33;101363.34;5071714;28;46363;-65
2022/06/10 00:20:37;;;;;;;;;7.00;7.00;;;;;20.14;51.45;101360.75;5071108;28;45657;-61
2022/06/10 00:23:02;;;;;;;;;4.33;4.33;;;;;20.10;51.37;101359.25;5064743;28;45538;-63
2022/06/10 00:25:29;;;;;;;;;5.67;5.00;;;;;20.08;51.57;101354.00;5071008;28;45503;-63
2022/06/10 00:27:55;;;;;;;;;5.33;4.67;;;;;20.06;51.39;101355.91;5058362;28;48834;-61
2022/06/10 00:30:24;;;;;;;;;6.67;5.00;;;;;20.03;51.57;101354.28;5058247;28;45456;-65
2022/06/10 00:32:49;;;;;;;;;4.33;4.33;;;;;19.99;51.91;101349.25;5076674;28;45534;-61
2022/06/10 00:35:15;;;;;;;;;5.67;5.33;;;;;19.97;52.13;101353.81;5069107;28;45502;-64
2022/06/10 00:37:41;;;;;;;;;5.00;5.00;;;;;19.93;52.01;101358.47;5057603;27;46392;-63
2022/06/10 00:40:12;;;;;;;;;7.00;7.00;;;;;19.89;52.52;101366.78;5057552;28;45567;-62
2022/06/10 00:42:38;;;;;;;;;6.33;5.33;;;;;19.87;51.83;101350.84;5056471;28;45556;-61
2022/06/10 00:45:05;;;;;;;;;10.00;7.00;;;;;19.91;52.01;101354.19;5056322;28;45564;-62
2022/06/10 00:47:36;;;;;;;;;6.33;6.33;;;;;19.86;52.46;101349.16;5056039;28;45433;-64
2022/06/10 00:50:18;;;;;;;;;4.33;4.33;;;;;19.86;51.78;101352.69;5055959;28;45551;-62
2022/06/10 00:52:53;;;;;;;;;6.00;5.00;;;;;19.89;52.38;101348.97;5061268;28;45566;-63
2022/06/10 00:55:28;;;;;;;;;5.00;5.00;;;;;19.93;51.54;101346.94;5058737;28;45600;-63
2022/06/10 00:57:59;;;;;;;;;5.67;5.67;;;;;19.93;51.82;101346.94;5068703;27;45599;-63
2022/06/10 01:00:24;;;;;;;;;7.33;5.67;;;;;19.85;52.75;101345.63;5086084;27;45649;-64
2022/06/10 01:02:49;;;;;;;;;2.00;2.00;;;;;19.74;52.83;101334.75;5093435;27;45534;-65
2022/06/10 01:05:20;;;;;;;;;4.00;4.00;;;;;19.73;52.83;101337.53;5086302;27;45644;-65
2022/06/10 01:07:50;;;;;;;;;6.00;5.00;;;;;19.80;52.30;101346.84;5075742;28;45458;-63
2022/06/10 01:10:18;;;;;;;;;7.33;6.33;;;;;19.83;52.77;101336.84;5070837;28;45487;-62
2022/06/10 01:12:53;;;;;;;;;7.00;7.00;;;;;19.79;52.43;101331.78;5059908;27;45535;-62
2022/06/10 01:15:22;;;;;;;;;7.00;5.67;;;;;19.79;52.47;101339.81;5067070;28;45596;-64
2022/06/10 01:18:08;;;;;;;;;6.00;4.67;;;;;19.81;52.65;101344.09;5063082;27;45965;-65
2022/06/10 01:20:39;;;;;;;;;6.00;6.00;;;;;19.78;52.91;101338.09;5074274;27;45575;-61
2022/06/10 01:23:33;;;;;;;;;6.67;6.00;;;;;19.62;52.86;101344.34;5076789;27;45541;-61
2022/06/10 01:27:47;;;;;;;;;5.00;5.00;;;;;19.50;53.94;101352.22;5096421;27;45502;-63
2022/06/10 01:30:00;;;;;;;;;7.00;6.00;;;;;19.50;53.04;101347.75;5055269;28;45603;-63
2022/06/10 01:32:34;;;;;;;;;7.00;5.00;;;;;19.55;53.44;101347.47;5066333;27;45495;-61
2022/06/10 01:35:23;;;;;;;;;4.00;4.00;;;;;19.54;53.13;101351.97;5055199;28;45433;-65
2022/06/10 01:37:55;;;;;;;;;5.33;5.33;;;;;19.51;52.94;101338.81;5057610;28;45500;-64
2022/06/10 01:40:23;;;;;;;;;5.00;5.00;;;;;19.49;53.13;101342.53;5063053;27;46359;-63
2022/06/10 01:43:00;;;;;;;;;5.33;5.33;;;;;19.49;53.09;101342.53;5072258;28;45560;-62
2022/06/10 01:45:44;;;;;;;;;5.00;5.00;;;;;19.48;53.54;101338.13;5072921;27;45462;-62
2022/06/10 01:48:31;;;;;;;;;4.00;4.00;;;;;19.43;53.96;101344.59;5073147;27;45525;-65
2022/06/10 01:51:17;;;;;;;;;6.00;5.67;;;;;19.40;53.36;101346.63;5038081;28;48121;-63
2022/06/10 01:53:57;;;;;;;;;6.33;6.33;;;;;19.38;53.88;101343.16;5055734;28;46368;-60
2022/06/10 01:56:30;;;;;;;;;4.00;4.00;;;;;19.36;53.63;101345.06;5070240;27;45535;-63
2022/06/10 01:59:26;;;;;;;;;9.00;7.00;;;;;19.34;53.95;101354.97;5070273;27;45429;-61
2022/06/10 02:01:59;;;;;;;;;6.00;6.00;;;;;19.38;53.49;101345.84;5058223;27;45592;-63
2022/06/10 02:04:32;;;;;;;;;6.00;5.00;;;;;19.41;53.53;101340.31;5054749;28;45477;-64
2022/06/10 02:07:11;;;;;;;;;6.67;6.33;;;;;19.40;53.83;101344.81;5054892;28;45552;-61
2022/06/10 02:09:48;;;;;;;;;4.67;4.00;;;;;19.46;53.35;101353.38;5068541;28;45632;-61
2022/06/10 02:12:24;;;;;;;;;6.33;6.33;;;;;19.47;53.55;101355.94;5054414;27;45464;-65
2022/06/10 02:14:58;;;;;;;;;5.33;5.33;;;;;19.40;53.42;101346.63;5054883;28;45465;-66
2022/06/10 02:17:29;;;;;;;;;4.00;4.00;;;;;19.36;53.35;101345.06;5054884;28;45655;-63
2022/06/10 02:19:59;;;;;;;;;6.00;6.00;;;;;19.35;54.15;101344.22;5055538;28;45334;-62
2022/06/10 02:22:27;;;;;;;;;4.00;4.00;;;;;19.34;53.65;101350.50;5054705;28;46383;-65
2022/06/10 02:25:01;;;;;;;;;5.00;5.00;;;;;19.32;53.73;101338.22;5056047;28;45516;-64
2022/06/10 02:27:33;;;;;;;;;6.00;5.00;;;;;19.34;53.17;101342.50;5054764;27;45456;-63
2022/06/10 02:30:10;;;;;;;;;4.00;4.00;;;;;19.33;53.33;101342.59;5054609;28;45399;-62
2022/06/10 02:32:37;;;;;;;;;5.00;5.00;;;;;19.33;53.89;101345.25;5079782;27;45522;-64
2022/06/10 02:35:04;;;;;;;;;4.33;4.33;;;;;19.28;53.69;101340.19;5062053;27;45559;-63
2022/06/10 02:37:47;;;;;;;;;6.00;4.67;;;;;19.27;54.01;101345.63;5054583;28;45408;-65
2022/06/10 02:40:22;;;;;;;;;4.00;4.00;;;;;19.17;54.03;101347.97;5061401;28;45674;-61
2022/06/10 02:43:23;;;;;;;;;5.00;5.00;;;;;19.13;53.96;101352.66;5074740;28;46208;-63
2022/06/10 02:46:20;;;;;;;;;5.00;5.00;;;;;19.09;54.47;101360.91;4964929;28;45558;-58
2022/06/10 02:49:05;;;;;;;;;7.33;5.33;;;;;19.09;54.00;101359.09;5054375;28;45475;-60
2022/06/10 02:51:32;;;;;;;;;5.67;4.33;;;;;19.13;54.54;101360.66;5054571;28;45588;-62
2022/06/10 02:53:58;;;;;;;;;3.67;3.67;;;;;19.18;54.22;101361.25;5073538;28;45451;-60
2022/06/10 02:56:26;;;;;;;;;4.33;4.33;;;;;19.14;54.24;101367.69;5072859;28;45738;-63
2022/06/10 03:01:46;;;;;;;;;4.67;4.67;;;;;19.06;54.22;101372.59;5067497;27;45366;-64
2022/06/10 03:04:24;;;;;;;;;5.00;5.00;;;;;19.05;54.49;101360.25;5074428;28;46354;-63
2022/06/10 03:07:24;;;;;;;;;5.67;5.00;;;;;19.11;53.80;101369.69;5062080;28;45491;-61
2022/06/10 03:10:08;;;;;;;;;5.67;5.67;;;;;19.17;53.74;101374.66;5029367;28;45625;-63
2022/06/10 03:12:55;;;;;;;;;6.33;6.33;;;;;19.18;53.95;101365.69;5053722;28;45737;-60
2022/06/10 03:15:56;;;;;;;;;6.00;6.00;;;;;19.15;54.34;101361.38;5054259;28;45449;-63
2022/06/10 03:18:40;;;;;;;;;9.00;6.00;;;;;19.14;54.38;101367.69;5011384;28;45417;-63
2022/06/10 03:21:11;;;;;;;;;6.67;6.67;;;;;19.14;53.94;101370.34;5065074;28;45530;-61
2022/06/10 03:24:06;;;;;;;;;7.00;6.00;;;;;19.14;53.79;101372.16;5059608;28;45466;-62
2022/06/10 03:26:34;;;;;;;;;4.00;4.00;;;;;19.12;54.26;101372.25;5043289;28;47168;-65
2022/06/10 03:29:05;;;;;;;;;5.00;4.00;;;;;19.06;54.06;101367.28;5059574;28;45535;-64
2022/06/10 03:31:39;;;;;;;;;5.00;5.00;;;;;19.16;53.68;101383.59;5084033;27;45829;-63
2022/06/10 03:34:18;;;;;;;;;5.00;5.00;;;;;19.16;53.74;101383.59;5098185;27;45421;-62
2022/06/10 03:36:46;;;;;;;;;4.67;4.67;;;;;19.17;53.73;101380.84;5092362;27;46178;-64
2022/06/10 03:39:12;;;;;;;;;5.00;4.00;;;;;19.15;53.36;101374.72;5060011;27;45602;-63
2022/06/10 03:41:53;;;;;;;;;6.33;4.33;;;;;19.16;53.15;101373.78;5057306;28;45470;-66
2022/06/10 03:44:20;;;;;;;;;7.00;5.00;;;;;19.18;53.33;101374.56;5065939;27;45671;-62
2022/06/10 03:46:50;;;;;;;;;6.67;4.33;;;;;19.23;53.34;101378.75;5056924;28;45462;-64
2022/06/10 03:49:20;;;;;;;;;5.67;4.67;;;;;19.18;53.79;101385.25;5055948;28;45492;-62
2022/06/10 03:51:47;;;;;;;;;4.67;4.67;;;;;19.15;53.76;101379.19;5057337;28;45565;-62
2022/06/10 03:54:18;;;;;;;;;5.33;5.33;;;;;19.14;53.65;101386.34;5056928;28;45496;-61
2022/06/10 03:56:44;;;;;;;;;4.67;4.33;;;;;19.04;54.18;101378.97;5056871;28;45539;-61
2022/06/10 03:59:10;;;;;;;;;3.67;3.67;;;;;19.07;53.87;101379.66;5056679;27;45382;-61
2022/06/10 04:01:35;;;;;;;;;5.67;5.67;;;;;19.01;53.82;101387.16;5057244;27;45554;-64
2022/06/10 04:04:01;;;;;;;;;4.00;4.00;;;;;19.03;53.53;101387.94;5056686;28;45492;-64
2022/06/10 04:06:26;;;;;;;;;4.00;4.00;;;;;18.98;54.55;101386.38;5056737;28;46303;-64
2022/06/10 04:08:52;;;;;;;;;4.33;4.00;;;;;18.97;53.92;101382.00;5057011;27;45435;-64
2022/06/10 04:11:17;;;;;;;;;3.67;3.67;;;;;18.96;54.10;101392.75;5068376;28;45448;-61
2022/06/10 04:13:44;;;;;;;;;5.33;5.33;;;;;18.96;54.15;101387.41;5060541;28;45621;-63
2022/06/10 04:16:09;;;;;;;;;3.67;2.67;;;;;18.98;54.09;101385.53;5072857;28;46330;-65
2022/06/10 04:18:36;;;;;;;;;6.00;5.00;;;;;19.00;54.51;101394.31;5062882;28;45473;-61
2022/06/10 04:21:01;;;;;;;;;5.00;5.00;;;;;19.00;54.33;101388.97;5076978;27;45503;-62
2022/06/10 04:23:27;;;;;;;;;6.00;4.00;;;;;19.01;54.37;101396.00;5067787;27;45533;-64
2022/06/10 04:25:52;;;;;;;;;4.00;4.00;;;;;19.02;54.30;101405.75;5055866;28;57404;-67
2022/06/10 04:28:17;;;;;;;;;3.00;3.00;;;;;19.01;54.33;101400.50;5056315;28;45350;-65
2022/06/10 04:30:46;;;;;;;;;4.67;4.67;;;;;19.00;54.45;101394.31;5056910;27;45679;-58
2022/06/10 04:33:12;;;;;;;;;7.00;4.67;;;;;19.06;54.03;101398.41;5056253;28;45559;-64
2022/06/10 04:35:39;;;;;;;;;5.67;5.00;;;;;19.00;54.65;101407.63;5061360;27;45653;-65
2022/06/10 04:38:05;;;;;;;;;5.00;3.33;;;;;18.97;54.54;101403.34;5076674;28;45463;-62
2022/06/10 04:40:33;;;;;;;;;4.00;4.00;;;;;19.05;54.60;101408.22;5062798;27;45752;-62
2022/06/10 04:43:00;;;;;;;;;5.33;3.67;;;;;19.08;54.40;101415.19;5055684;28;45715;-63
2022/06/10 04:45:29;;;;;;;;;4.00;4.00;;;;;19.10;54.69;101416.81;5056393;28;45850;-65
2022/06/10 04:47:55;;;;;;;;;5.00;5.00;;;;;19.06;54.21;101412.59;5056503;28;45657;-60
2022/06/10 04:50:23;;;;;;;;;5.33;3.33;;;;;19.07;54.36;101408.13;5058289;28;45606;-61
2022/06/10 04:52:49;;;;;;;;;5.00;5.00;;;;;19.06;54.28;101401.09;5056517;27;45570;-62
2022/06/10 04:55:14;;;;;;;;;4.00;4.00;;;;;19.11;54.25;101407.00;5070908;28;46661;-64
2022/06/10 04:57:40;;;;;;;;;6.67;5.33;;;;;19.12;54.88;101408.72;5064835;28;45363;-62
2022/06/10 05:00:09;;;;;;;;;4.67;4.67;;;;;19.13;54.43;101405.13;5057964;28;45628;-63
2022/06/10 05:02:35;;;;;;;;;5.00;4.00;;;;;19.11;54.32;101405.19;5037496;28;45623;-63
2022/06/10 05:05:01;;;;;;;;;5.00;5.00;;;;;19.07;54.55;101398.31;5055379;28;50636;-63
2022/06/10 05:07:26;;;;;;;;;4.00;4.00;;;;;19.10;54.41;101402.59;5072973;27;45531;-60
2022/06/10 05:09:52;;;;;;;;;5.33;5.33;;;;;19.10;55.03;101403.50;5052247;28;45409;-60
2022/06/10 05:12:17;;;;;;;;;4.00;4.00;;;;;19.13;55.11;101407.78;5055647;28;45508;-60
2022/06/10 05:14:42;;;;;;;;;4.00;4.00;;;;;19.09;55.06;101399.09;5055513;28;45476;-62
2022/06/10 05:17:08;;;;;;;;;4.00;4.00;;;;;19.12;54.83;101400.72;5055404;28;45452;-63
2022/06/10 05:19:33;;;;;;;;;5.00;4.00;;;;;19.16;54.79;101410.28;5069797;27;45424;-61
2022/06/10 05:21:59;;;;;;;;;5.67;4.67;;;;;19.18;55.07;101405.69;5090199;27;45443;-64
2022/06/10 05:24:24;;;;;;;;;4.00;3.00;;;;;19.22;54.96;101406.38;5076535;27;46321;-61
2022/06/10 05:26:50;;;;;;;;;6.33;5.00;;;;;19.25;55.03;101404.38;5059049;27;45373;-60
2022/06/10 05:29:15;;;;;;;;;4.33;4.33;;;;;19.22;55.54;101401.06;5075655;28;45561;-60
2022/06/10 05:31:40;;;;;;;;;4.00;4.00;;;;;19.23;54.78;101414.28;5062827;28;45383;-62
2022/06/10 05:36:49;;;;;;;;;5.00;5.00;;;;;19.28;55.30;101412.19;5059411;28;45471;-64
2022/06/10 05:39:15;;;;;;;;;3.00;3.00;;;;;19.28;54.81;101414.03;5074351;28;45622;-63
2022/06/10 05:44:25;;;;;;;;;3.33;3.33;;;;;19.28;55.44;101414.03;5054984;28;45809;-67
2022/06/10 05:46:52;;;;;;;;;3.00;3.00;;;;;19.27;55.17;101406.97;5036992;28;45487;-62
2022/06/10 05:49:18;;;;;;;;;3.67;3.67;;;;;19.28;55.90;101419.34;5069954;27;45482;-66
2022/06/10 05:51:44;;;;;;;;;3.67;3.67;;;;;19.30;55.68;101418.31;5068206;27;45607;-63
2022/06/10 05:54:09;;;;;;;;;6.00;4.00;;;;;19.33;54.97;101420.78;5037848;28;45492;-60
2022/06/10 05:56:34;;;;;;;;;4.67;4.00;;;;;19.33;55.49;101431.47;5075277;28;45381;-63
2022/06/10 05:59:00;;;;;;;;;4.00;4.00;;;;;19.33;55.43;101433.28;5064001;28;45625;-64
2022/06/10 06:01:25;;;;;;;;;2.00;2.00;;;;;19.35;55.28;101439.41;5064638;27;45655;-61
2022/06/10 06:03:50;;;;;;;;;5.67;4.00;;;;;19.39;55.50;101444.44;5069797;28;45456;-63
2022/06/10 06:06:16;;;;;;;;;5.00;4.67;;;;;19.45;55.64;101455.69;5075266;28;45422;-65
2022/06/10 06:08:41;;;;;;;;;4.50;2.50;;;;;19.47;55.07;101448.47;5074611;28;45525;-61
2022/06/10 06:11:07;;;;;;;;;3.00;3.00;;;;;19.51;55.31;101444.69;5071592;27;45491;-66
2022/06/10 06:13:33;;;;;;;;;4.50;3.00;;;;;19.54;55.31;101458.69;5068237;28;45460;-61
2022/06/10 06:15:58;;;;;;;;;3.33;3.33;;;;;19.54;55.32;101458.69;5075844;27;45416;-60
2022/06/10 06:18:24;;;;;;;;;3.75;3.75;;;;;19.56;55.15;101461.28;5075094;28;45423;-60
2022/06/10 06:20:49;;;;;;;;;2.50;2.50;;;;;19.55;54.65;101454.22;5069879;28;45384;-61
2022/06/10 06:23:15;;;;;;;;;3.67;3.00;;;;;19.59;55.40;101459.28;5069901;28;45595;-63
2022/06/10 06:25:41;;;;;;;;;3.00;3.00;;;;;19.56;54.91;101453.28;5072787;28;45408;-67
2022/06/10 06:28:06;;;;;;;;;5.67;5.00;;;;;19.59;54.64;101455.75;5066115;27;45668;-62
2022/06/10 06:30:36;;;;;;;;;4.25;4.00;;;;;19.60;55.15;101452.97;5055216;27;45445;-64
2022/06/10 06:33:04;;;;;;;;;4.25;3.50;;;;;19.62;54.52;101466.25;5054463;28;46480;-60
2022/06/10 06:35:31;;;;;;;;;4.75;3.00;;;;;19.67;55.23;101466.00;5053981;28;45548;-62
2022/06/10 06:37:57;;;;;;;;;3.75;3.75;;;;;19.68;55.36;101465.06;5060280;27;45524;-65
2022/06/10 06:40:22;;;;;;;;;3.75;3.75;;;;;19.66;54.74;101462.47;5060550;27;45591;-62
2022/06/10 06:42:49;;;;;;;;;2.00;2.00;;;;;19.69;54.90;101464.09;5054072;28;45520;-64
2022/06/10 06:45:16;;;;;;;;;4.00;3.00;;;;;19.74;54.80;101464.69;5054213;28;45464;-62
2022/06/10 06:47:41;;;;;;;;;6.00;4.67;;;;;19.76;54.93;101465.44;5054116;28;45499;-61
2022/06/10 06:50:09;;;;;;;;;4.00;3.50;;;;;19.78;54.72;101466.22;5062182;27;45573;-65
2022/06/10 06:52:34;;;;;;;;;3.50;2.25;;;;;19.83;54.21;101470.34;5053800;28;46483;-63
2022/06/10 06:54:59;;;;;;;;;3.00;3.00;;;;;19.81;54.56;101460.69;5053549;28;45622;-62
2022/06/10 06:57:27;;;;;;;;;3.50;3.00;;;;;19.80;54.55;101461.63;5054172;28;45538;-60
2022/06/10 06:59:53;;;;;;;;;3.00;2.33;;;;;19.78;55.06;101460.88;5054550;27;45548;-64
2022/06/10 07:02:20;;;;;;;;;3.50;3.00;;;;;19.79;55.03;101460.78;5053947;28;46616;-60
2022/06/10 07:04:45;;;;;;;;;6.67;5.33;;;;;19.81;54.89;101452.69;5075214;27;45526;-62
2022/06/10 07:07:11;;;;;;;;;3.50;3.50;;;;;19.86;54.37;101456.78;5070851;28;45456;-60
2022/06/10 07:09:36;;;;;;;;;4.00;2.25;;;;;19.88;54.08;101456.72;5071237;28;45519;-63
2022/06/10 07:12:02;;;;;;;;;2.00;2.00;;;;;19.98;53.79;101463.19;5074074;28;45450;-64
2022/06/10 07:14:27;;;;;;;;;2.75;2.00;;;;;20.00;54.13;101460.44;5076349;27;45459;-62
2022/06/10 07:16:53;;;;;;;;;5.67;4.67;;;;;20.01;53.80;101457.66;5078982;27;45795;-65
2022/06/10 07:19:19;;;;;;;;;2.00;2.00;;;;;20.11;53.51;101457.97;5094560;27;45562;-63
2022/06/10 07:21:45;;;;;;;;;2.67;2.67;;;;;20.20;53.99;101456.53;5094485;27;46766;-65
2022/06/10 07:24:11;;;;;;;;;2.00;2.00;;;;;20.28;54.08;101462.25;5073105;27;45532;-61
2022/06/10 07:26:37;;;;;;;;;2.00;2.00;;;;;20.33;53.78;101454.81;5056866;28;45595;-60
2022/06/10 07:29:04;;;;;;;;;5.25;5.25;;;;;20.38;53.49;101459.88;5053868;28;45459;-66
2022/06/10 07:31:30;;;;;;;;;1.25;1.25;;;;;20.39;53.19;101462.47;5065745;28;45364;-62
2022/06/10 07:33:57;;;;;;;;;2.75;1.00;;;;;20.36;52.52;101462.63;5073609;28;45473;-64
2022/06/10 07:36:22;;;;;;;;;2.00;2.00;;;;;20.33;53.16;101460.16;5072444;27;45489;-65
2022/06/10 07:38:48;;;;;;;;;2.00;2.00;;;;;20.32;53.13;101468.28;5055514;28;45424;-62
2022/06/10 07:43:57;;;;;;;;;5.00;3.25;;;;;20.43;53.11;101479.16;5053335;28;45440;-60
2022/06/10 07:46:23;;;;;;;;;12.00;7.00;;;;;20.45;53.18;101480.78;5053549;28;45441;-65
2022/06/10 07:48:49;;;;;;;;;4.00;2.00;;;;;20.48;53.28;101482.41;5053610;27;45510;-65
2022/06/10 07:51:15;;;;;;;;;2.25;2.25;;;;;20.44;52.61;101478.19;5053459;28;46451;-65
2022/06/10 07:53:41;;;;;;;;;2.00;2.00;;;;;20.40;51.71;101465.97;5053101;28;45464;-64
2022/06/10 07:56:07;;;;;;;;;1.00;1.00;;;;;20.42;52.41;101464.94;5053591;28;45502;-65
2022/06/10 07:58:33;;;;;;;;;1.50;1.50;;;;;20.36;52.64;101470.63;5060999;28;45514;-67
2022/06/10 08:00:58;;;;;;;;;3.00;3.00;;;;;20.42;53.16;101477.44;5069885;27;46124;-60
2022/06/10 08:03:25;;;;;;;;;3.25;3.25;;;;;20.42;52.00;101467.59;5059881;27;45610;-63
2022/06/10 08:05:50;;;;;;;;;3.25;3.25;;;;;20.42;52.35;101478.28;5061189;27;45514;-62
2022/06/10 08:08:18;;;;;;;;;1.50;1.50;;;;;20.38;52.44;101473.22;5076868;28;45385;-63
2022/06/10 08:10:44;;;;;;;;;3.00;3.00;;;;;20.38;52.52;101463.41;5076377;28;46895;-65
2022/06/10 08:13:10;;;;;;;;;3.50;2.00;;;;;20.43;52.46;101461.28;5076548;28;45430;-68
2022/06/10 08:15:36;;;;;;;;;0.50;0.50;;;;;20.43;51.94;101458.63;5074965;27;45582;-59
2022/06/10 08:18:04;;;;;;;;;1.50;1.50;;;;;20.43;51.65;101455.94;5059585;27;45661;-60
2022/06/10 08:23:19;;;;;;;;;3.00;3.00;;;;;20.60;51.06;101464.75;5056333;28;45422;-65
2022/06/10 08:25:44;;;;;;;;;3.00;3.00;;;;;20.64;50.98;101467.13;5056994;28;45483;-64
2022/06/10 08:28:11;;;;;;;;;1.75;1.75;;;;;20.65;49.55;101465.31;5056892;28;45616;-64
2022/06/10 08:30:37;;;;;;;;;2.50;2.50;;;;;20.63;49.90;101468.09;5056376;27;45617;-64
2022/06/10 08:33:03;;;;;;;;;2.75;2.75;;;;;20.66;50.10;101461.66;5070945;27;45536;-63
2022/06/10 08:35:34;;;;;;;;;1.00;1.00;;;;;20.63;49.88;101465.44;5076567;28;45437;-62
2022/06/10 08:38:01;;;;;;;;;1.00;1.00;;;;;20.69;48.97;101450.81;5055777;28;45493;-66
2022/06/10 08:40:58;;;;;;;;;3.00;1.00;;;;;20.66;49.22;101446.50;5076235;28;45540;-64
2022/06/10 08:43:46;;;;;;;;;1.00;1.00;;;;;20.73;49.58;101455.00;5066732;27;45451;-63
2022/06/10 08:46:32;;;;;;;;;3.00;1.25;;;;;20.67;48.72;101442.03;5075370;27;45487;-64
2022/06/10 08:48:57;;;;;;;;;2.25;2.25;;;;;20.74;49.41;101446.03;5073408;27;45702;-62
2022/06/10 08:51:30;;;;;;;;;1.25;1.25;;;;;20.77;49.36;101443.16;5058006;28;46471;-64
2022/06/10 08:54:04;;;;;;;;;3.00;2.25;;;;;20.84;49.79;101452.47;5076126;28;45448;-63
2022/06/10 08:56:34;;;;;;;;;3.00;2.00;;;;;20.86;50.11;101444.38;5058169;28;45580;-65
2022/06/10 08:59:25;;;;;;;;;2.00;2.00;;;;;20.91;50.11;101451.13;5069249;27;45526;-61
2022/06/10 09:02:09;;;;;;;;;2.00;2.00;;;;;20.97;49.76;101452.53;5055703;28;46316;-63
2022/06/10 09:04:57;;;;;;;;;4.25;3.00;;;;;21.00;49.60;101448.81;5055749;28;45429;-61
2022/06/10 09:07:30;;;;;;;;;1.50;1.50;;;;;21.12;49.61;101454.22;5057115;27;45471;-65
2022/06/10 09:09:58;;;;;;;;;1.25;1.25;;;;;21.19;49.26;101444.81;5071299;27;45428;-62
2022/06/10 09:12:53;;;;;;;;;1.00;1.00;;;;;21.22;48.53;101449.09;5075666;28;45583;-63
2022/06/10 09:15:20;;;;;;;;;1.00;1.00;;;;;21.17;48.71;101433.38;5048664;27;45551;-61
2022/06/10 09:17:54;;;;;;;;;1.75;1.00;;;;;21.21;48.09;101439.34;5065684;27;45512;-63
2022/06/10 09:20:39;;;;;;;;;1.25;1.25;;;;;21.23;47.92;101436.59;5076087;28;45543;-64
2022/06/10 09:23:13;;;;;;;;;2.00;2.00;;;;;21.26;47.33;101453.28;5059594;27;46360;-60
2022/06/10 09:25:44;;;;;;;;;1.75;1.75;;;;;21.26;47.39;101441.75;5055429;28;45507;-60
2022/06/10 09:28:10;;;;;;;;;201.50;190.75;;;;;21.28;47.48;101446.03;5055461;28;45444;-60
2022/06/10 09:30:58;;;;;;;;;0.75;0.75;;;;;21.35;46.77;101441.09;5054747;27;45491;-64
2022/06/10 09:33:31;;;;;;;;;1.50;0.25;;;;;21.36;46.79;101448.19;5055290;28;46381;-66
2022/06/10 09:36:31;;;;;;;;;2.00;2.00;;;;;21.39;46.96;101450.69;5062334;27;45480;-64
2022/06/10 09:42:17;;;;;;;;;1.00;1.00;;;;;21.36;46.71;101453.53;5055187;28;45511;-66
2022/06/10 09:44:56;;;;;;;;;1.00;1.00;;;;;21.41;46.54;101454.09;5052909;28;46737;-66
2022/06/10 09:47:41;;;;;;;;;2.00;1.00;;;;;21.42;47.04;101453.16;5063747;27;45511;-66
2022/06/10 09:50:21;;;;;;;;;1.75;1.75;;;;;21.48;47.14;101454.56;5055302;28;45516;-67
2022/06/10 09:52:55;;;;;;;;;2.00;2.00;;;;;21.51;47.22;101465.06;5055145;28;45550;-64
2022/06/10 09:55:27;;;;;;;;;1.00;1.00;;;;;21.51;47.14;101457.03;5055171;28;46157;-65
2022/06/10 09:58:13;;;;;;;;;2.00;1.00;;;;;21.54;47.38;101449.63;5064688;27;45511;-64
2022/06/10 10:00:48;;;;;;;;;2.00;1.25;;;;;21.55;47.31;101450.50;5075509;28;45538;-62
2022/06/10 10:04:01;;;;;;;;;1.00;1.00;;;;;21.58;47.49;101450.31;5075099;28;45983;-62
2022/06/10 10:06:36;;;;;;;;;1.00;1.00;;;;;21.62;47.62;101460.69;5012315;28;45448;-65
2022/06/10 10:09:22;;;;;;;;;1.00;1.00;;;;;21.60;47.51;101459.06;5075018;28;45460;-66
2022/06/10 10:12:09;;;;;;;;;2.00;2.00;;;;;21.60;47.52;101453.72;5060626;27;45441;-64
2022/06/10 10:14:52;;;;;;;;;5.50;5.25;;;;;21.59;47.37;101454.69;5059918;27;45526;-66
2022/06/10 10:17:45;;;;;;;;;1.50;1.50;;;;;21.63;47.71;101456.19;5054437;27;46195;-63
2022/06/10 10:20:17;;;;;;;;;5.50;5.25;;;;;21.70;47.94;101461.97;5055442;28;45477;-64
2022/06/10 10:22:54;;;;;;;;;75.50;67.25;;;;;21.74;47.85;101475.06;5054561;27;45523;-64
2022/06/10 10:25:23;;;;;;;;;1.33;0.00;;;;;21.78;48.08;101459.63;5053941;28;45666;-63
2022/06/10 10:27:50;;;;;;;;;1.00;1.00;;;;;21.84;47.77;101452.06;5061566;27;45558;-63
2022/06/10 10:30:32;;;;;;;;;1.75;1.75;;;;;21.87;47.84;101450.09;5078083;27;45550;-63
2022/06/10 10:33:04;;;;;;;;;6.75;6.75;;;;;21.95;48.10;101456.66;5038490;28;45554;-62
2022/06/10 10:35:36;;;;;;;;;5.00;3.00;;;;;22.04;48.04;101453.31;5053596;27;45444;-60
2022/06/10 10:38:05;;;;;;;;;7.75;7.75;;;;;22.11;48.17;101455.56;5081655;27;45568;-65
2022/06/10 10:40:40;;;;;;;;;2.25;2.25;;;;;22.13;47.88;101454.50;5087685;27;45469;-63
2022/06/10 10:43:19;;;;;;;;;4.25;3.25;;;;;22.13;48.21;101454.50;5057645;27;45539;-64
2022/06/10 10:46:02;;;;;;;;;2.50;2.50;;;;;22.19;48.04;101458.59;5060040;27;45564;-66
2022/06/10 10:48:32;;;;;;;;;2.00;2.00;;;;;22.19;47.99;101446.09;5070342;27;45707;-67
2022/06/10 10:51:15;;;;;;;;;4.50;3.50;;;;;22.20;47.86;101454.97;5070414;27;45701;-63
2022/06/10 10:53:49;;;;;;;;;4.25;4.00;;;;;22.20;47.83;101447.78;5058003;27;45654;-63
2022/06/10 10:56:17;;;;;;;;;6.00;6.00;;;;;22.25;48.19;101453.69;5057570;27;45720;-62
2022/06/10 10:58:52;;;;;;;;;2.50;2.50;;;;;22.28;48.49;101448.09;5050761;27;47388;-63
2022/06/10 11:01:45;;;;;;;;;4.50;4.50;;;;;22.24;48.51;101449.25;5059290;27;45455;-65
2022/06/10 11:04:25;;;;;;;;;3.00;3.00;;;;;22.32;48.23;101447.88;5026125;27;45834;-60
2022/06/10 11:07:23;;;;;;;;;3.25;3.25;;;;;22.37;48.60;101451.09;5024823;27;45810;-68
2022/06/10 11:09:52;;;;;;;;;2.50;2.50;;;;;22.37;48.27;101451.94;5042847;27;46218;-61
2022/06/10 11:12:21;;;;;;;;;4.00;4.00;;;;;22.38;48.00;101442.94;5044041;27;45588;-61
2022/06/10 11:14:56;;;;;;;;;4.00;3.00;;;;;22.42;48.01;101455.16;5065273;27;45539;-60
2022/06/10 11:17:24;;;;;;;;;3.00;3.00;;;;;22.42;48.10;101455.16;5047671;28;45592;-65
2022/06/10 11:20:00;;;;;;;;;2.75;2.75;;;;;22.44;48.13;101461.25;5055179;27;46409;-60
2022/06/10 11:22:26;;;;;;;;;3.00;3.00;;;;;22.45;47.79;101449.56;5070822;27;45515;-63
2022/06/10 11:25:03;;;;;;;;;1.25;1.25;;;;;22.49;47.60;101466.31;5072946;27;45467;-63
2022/06/10 11:27:39;;;;;;;;;4.75;4.75;;;;;22.47;47.58;101453.00;5056791;28;45595;-63
2022/06/10 11:30:10;;;;;;;;;4.75;4.00;;;;;22.47;47.11;101452.16;5064293;27;46332;-63
2022/06/10 11:32:47;;;;;;;;;2.00;2.00;;;;;22.43;47.39;101461.34;5066333;28;45640;-62
2022/06/10 11:35:28;;;;;;;;;3.00;3.00;;;;;22.39;47.63;101460.72;5053995;27;46186;-61
2022/06/10 11:37:58;;;;;;;;;3.75;3.75;;;;;22.38;47.82;101450.09;5058413;27;45572;-62
2022/06/10 11:40:43;;;;;;;;;3.00;2.75;;;;;22.39;47.75;101441.13;5062173;27;46671;-62
2022/06/10 11:43:25;;;;;;;;;2.75;2.75;;;;;22.39;47.63;101441.13;5071194;27;45617;-62
2022/06/10 11:46:34;;;;;;;;;2.25;2.00;;;;;22.42;47.83;101441.75;5065546;27;45650;-63
2022/06/10 11:49:23;;;;;;;;;2.75;2.00;;;;;22.43;47.48;101442.59;5065699;28;45513;-62
2022/06/10 11:52:04;;;;;;;;;2.00;2.00;;;;;22.46;47.90;101439.69;5063008;27;45769;-64
2022/06/10 11:54:50;;;;;;;;;2.00;2.00;;;;;22.46;47.45;101428.97;5066851;27;45578;-66
2022/06/10 12:00:33;;;;;;;;;2.00;2.00;;;;;22.63;47.71;101431.28;5066200;27;45805;-60
2022/06/10 12:03:19;;;;;;;;;2.25;2.25;;;;;22.68;47.58;101437.19;5063828;27;45560;-63
2022/06/10 12:06:07;;;;;;;;;3.00;3.00;;;;;22.79;47.59;101435.53;5069786;27;45437;-62
2022/06/10 12:08:42;;;;;;;;;84.00;82.25;;;;;22.87;47.65;101427.78;5065901;27;45649;-60